Time;durP1;ratioP1;P1;durP2;ratioP2;P2;SDS_P1;SDS_P2;PMS_P1;PMS_P2;Temp;Humidity;BMP_temperature;BMP_pressure;BME280_temperature;BME280_humidity;BME280_pressure;Samples;Min_cycle;Max_cycle;Signal;HPM_P1;HPM_P2
2024/01/19 00:01:33;;;;;;;;;;;;;;;-140.72;0.00;52634.38;5084248;28;20376;-71
2024/01/19 00:03:59;;;;;;;;;;;;;;;-140.72;0.00;52630.31;5087254;28;19967;-71
2024/01/19 00:06:24;;;;;;;;;;;;;;;-140.72;0.00;52605.94;5093097;28;20006;-71
2024/01/19 00:08:50;;;;;;;;;;;;;;;-140.72;0.00;52628.28;5083431;28;19916;-71
2024/01/19 00:11:15;;;;;;;;;;;;;;;-140.72;0.00;52630.31;5092640;28;19920;-71
2024/01/19 00:13:43;;;;;;;;;;;;;;;-140.72;0.00;52638.41;5082601;28;19923;-71
2024/01/19 00:16:09;;;;;;;;;;;;;;;-140.72;0.00;52666.84;5095282;28;19927;-71
2024/01/19 00:18:34;;;;;;;;;;;;;;;-140.72;0.00;52679.00;5102123;28;19920;-71
2024/01/19 00:21:00;;;;;;;;;;;;;;;-140.72;0.00;52660.75;5083774;28;20049;-71
2024/01/19 00:23:25;;;;;;;;;;;;;;;-140.72;0.00;52616.09;5110393;28;19920;-71
2024/01/19 00:25:50;;;;;;;;;;;;;;;-140.72;0.00;52658.72;5079275;28;19963;-71
2024/01/19 00:28:15;;;;;;;;;;;;;;;-140.72;0.00;52614.06;5090872;28;20019;-71
2024/01/19 00:30:40;;;;;;;;;;;;;;;-140.72;0.00;52597.84;5083744;28;20298;-72
2024/01/19 00:33:05;;;;;;;;;;;;;;;-140.72;0.00;52652.63;5109537;28;19999;-72
2024/01/19 00:35:31;;;;;;;;;;;;;;;-140.72;0.00;52642.47;5097753;28;19921;-71
2024/01/19 00:37:56;;;;;;;;;;;;;;;-140.72;0.00;52646.53;5091442;28;19920;-72
2024/01/19 00:40:21;;;;;;;;;;;;;;;-140.72;0.00;52628.28;5084039;28;19920;-72
2024/01/19 00:42:46;;;;;;;;;;;;;;;-140.72;0.00;52638.41;5095338;28;20449;-72
2024/01/19 00:45:12;;;;;;;;;;;;;;;-140.72;0.00;52626.25;5092505;28;19920;-71
2024/01/19 00:47:38;;;;;;;;;;;;;;;-140.72;0.00;52620.16;5105626;28;19954;-71
2024/01/19 00:50:04;;;;;;;;;;;;;;;-140.72;0.00;52638.41;5075092;28;20014;-72
2024/01/19 00:52:29;;;;;;;;;;;;;;;-140.72;0.00;52630.31;5091902;28;20385;-71
2024/01/19 00:54:54;;;;;;;;;;;;;;;-140.72;0.00;52648.56;5078358;28;19971;-71
2024/01/19 00:57:19;;;;;;;;;;;;;;;-140.72;0.00;52622.19;5091288;28;19927;-71
2024/01/19 00:59:44;;;;;;;;;;;;;;;-140.72;0.00;52634.38;5094407;28;20430;-71
2024/01/19 01:02:10;;;;;;;;;;;;;;;-140.72;0.00;52620.16;5090888;28;20384;-71
2024/01/19 01:04:35;;;;;;;;;;;;;;;-140.72;0.00;52674.94;5097231;28;20324;-72
2024/01/19 01:07:01;;;;;;;;;;;;;;;-140.72;0.00;52638.41;5103291;28;19927;-71
2024/01/19 01:09:27;;;;;;;;;;;;;;;-140.72;0.00;52634.38;5095722;28;19928;-72
2024/01/19 01:11:52;;;;;;;;;;;;;;;-140.72;0.00;52644.50;5097066;28;19997;-72
2024/01/19 01:14:17;;;;;;;;;;;;;;;-140.72;0.00;52616.09;5101376;28;19920;-72
2024/01/19 01:16:42;;;;;;;;;;;;;;;-140.72;0.00;52624.22;5103080;28;19934;-72
2024/01/19 01:19:08;;;;;;;;;;;;;;;-140.72;0.00;52666.84;5099841;28;19931;-72
2024/01/19 01:21:33;;;;;;;;;;;;;;;-140.72;0.00;52628.28;5099168;28;19973;-71
2024/01/19 01:23:59;;;;;;;;;;;;;;;-140.72;0.00;52628.28;5083178;28;19935;-73
2024/01/19 01:26:25;;;;;;;;;;;;;;;-140.72;0.00;52705.38;5096673;28;19954;-71
2024/01/19 01:28:50;;;;;;;;;;;;;;;-140.72;0.00;52642.47;5101012;28;19919;-71
2024/01/19 01:31:15;;;;;;;;;;;;;;;-140.72;0.00;52679.00;5098423;28;19928;-71
2024/01/19 01:33:40;;;;;;;;;;;;;;;-140.72;0.00;52668.84;5099247;28;19989;-72
2024/01/19 01:36:05;;;;;;;;;;;;;;;-140.72;0.00;52638.41;5094995;28;20380;-72
2024/01/19 01:38:31;;;;;;;;;;;;;;;-140.72;0.00;52634.38;5081995;28;19920;-72
2024/01/19 01:40:56;;;;;;;;;;;;;;;-140.72;0.00;52674.94;5101313;28;19958;-71
2024/01/19 01:43:23;;;;;;;;;;;;;;;-140.72;0.00;52674.94;5088831;28;19943;-71
2024/01/19 01:45:48;;;;;;;;;;;;;;;-140.72;0.00;52654.66;5087315;28;20019;-72
2024/01/19 01:48:13;;;;;;;;;;;;;;;-140.72;0.00;52650.59;5096104;28;20036;-71
2024/01/19 01:50:39;;;;;;;;;;;;;;;-140.72;0.00;52668.84;5093628;28;20003;-72
2024/01/19 01:53:04;;;;;;;;;;;;;;;-140.72;0.00;52660.75;5066624;28;20003;-71
2024/01/19 01:55:30;;;;;;;;;;;;;;;-140.72;0.00;52634.38;5075100;28;20022;-71
2024/01/19 01:57:55;;;;;;;;;;;;;;;-140.72;0.00;52646.53;5079781;28;20069;-72
2024/01/19 02:00:20;;;;;;;;;;;;;;;-140.72;0.00;52654.66;5094658;28;19954;-72
2024/01/19 02:02:46;;;;;;;;;;;;;;;-140.72;0.00;52658.72;5074025;28;19920;-72
2024/01/19 02:05:11;;;;;;;;;;;;;;;-140.72;0.00;52658.72;5091615;28;20081;-72
2024/01/19 02:07:37;;;;;;;;;;;;;;;-140.72;0.00;52650.59;5107549;28;19996;-73
2024/01/19 02:10:02;;;;;;;;;;;;;;;-140.72;0.00;52648.56;5079670;28;19919;-72
2024/01/19 02:12:28;;;;;;;;;;;;;;;-140.72;0.00;52622.19;5085821;28;19917;-71
2024/01/19 02:14:55;;;;;;;;;;;;;;;-140.72;0.00;52605.94;5097485;28;19988;-72
2024/01/19 02:17:20;;;;;;;;;;;;;;;-140.72;0.00;52654.66;5091388;28;19938;-71
2024/01/19 02:19:45;;;;;;;;;;;;;;;-140.72;0.00;52614.06;5086117;28;20354;-71
2024/01/19 02:22:10;;;;;;;;;;;;;;;-140.72;0.00;52652.63;5086689;28;19916;-71
2024/01/19 02:24:36;;;;;;;;;;;;;;;-140.72;0.00;52640.44;5080694;28;19928;-71
2024/01/19 02:27:02;;;;;;;;;;;;;;;-140.72;0.00;52630.31;5096946;28;19921;-72
2024/01/19 02:29:27;;;;;;;;;;;;;;;-140.72;0.00;52648.56;5084291;28;20011;-71
2024/01/19 02:31:52;;;;;;;;;;;;;;;-140.72;0.00;52628.28;5077868;28;20015;-72
2024/01/19 02:34:18;;;;;;;;;;;;;;;-140.72;0.00;52668.84;5095044;28;21482;-71
2024/01/19 02:36:43;;;;;;;;;;;;;;;-140.72;0.00;52664.81;5081600;28;19954;-71
2024/01/19 02:39:08;;;;;;;;;;;;;;;-140.72;0.00;52650.59;5077674;28;19923;-72
2024/01/19 02:41:33;;;;;;;;;;;;;;;-140.72;0.00;52683.06;5086606;28;19923;-71
2024/01/19 02:43:59;;;;;;;;;;;;;;;-140.72;0.00;52668.84;5074576;28;19916;-71
2024/01/19 02:46:24;;;;;;;;;;;;;;;-140.72;0.00;52636.38;5077276;28;19923;-72
2024/01/19 02:48:49;;;;;;;;;;;;;;;-140.72;0.00;52672.91;5084335;28;19936;-72
2024/01/19 02:51:14;;;;;;;;;;;;;;;-140.72;0.00;52674.94;5080846;28;20014;-72
2024/01/19 02:53:39;;;;;;;;;;;;;;;-140.72;0.00;52668.84;5071567;28;20007;-71
2024/01/19 02:56:05;;;;;;;;;;;;;;;-140.72;0.00;52646.53;5092442;28;19920;-71
2024/01/19 02:58:31;;;;;;;;;;;;;;;-140.72;0.00;52691.19;5096457;28;20365;-71
2024/01/19 03:00:56;;;;;;;;;;;;;;;-140.72;0.00;52658.72;5079355;28;20400;-71
2024/01/19 03:03:21;;;;;;;;;;;;;;;-140.72;0.00;52676.97;5085319;28;19916;-71
2024/01/19 03:05:46;;;;;;;;;;;;;;;-140.72;0.00;52644.50;5074683;28;20027;-71
2024/01/19 03:08:12;;;;;;;;;;;;;;;-140.72;0.00;52679.00;5085316;28;19923;-71
2024/01/19 03:10:37;;;;;;;;;;;;;;;-140.72;0.00;52691.19;5086086;28;19923;-72
2024/01/19 03:13:02;;;;;;;;;;;;;;;-140.72;0.00;52654.66;5083399;28;19920;-71
2024/01/19 03:15:28;;;;;;;;;;;;;;;-140.72;0.00;52644.50;5099503;28;19920;-71
2024/01/19 03:17:53;;;;;;;;;;;;;;;-140.72;0.00;52668.84;5092018;28;19916;-71
2024/01/19 03:20:18;;;;;;;;;;;;;;;-140.72;0.00;52723.66;5079774;28;19916;-72
2024/01/19 03:22:44;;;;;;;;;;;;;;;-140.72;0.00;52634.38;5098024;28;19920;-71
2024/01/19 03:25:09;;;;;;;;;;;;;;;-140.72;0.00;52674.94;5097776;28;20301;-72
2024/01/19 03:27:34;;;;;;;;;;;;;;;-140.72;0.00;52640.44;5084836;28;19978;-72
2024/01/19 03:29:59;;;;;;;;;;;;;;;-140.72;0.00;52626.25;5078616;28;19917;-72
2024/01/19 03:32:25;;;;;;;;;;;;;;;-140.72;0.00;52638.41;5072581;28;19927;-71
2024/01/19 03:34:50;;;;;;;;;;;;;;;-140.72;0.00;52672.91;5081507;28;19917;-71
2024/01/19 03:37:15;;;;;;;;;;;;;;;-140.72;0.00;52672.91;5088648;28;20006;-71
2024/01/19 03:39:40;;;;;;;;;;;;;;;-140.72;0.00;52605.94;5084083;28;20305;-71
2024/01/19 03:42:06;;;;;;;;;;;;;;;-140.72;0.00;52630.31;5089963;28;19920;-71
2024/01/19 03:44:31;;;;;;;;;;;;;;;-140.72;0.00;52658.72;5083891;28;19999;-71
2024/01/19 03:46:59;;;;;;;;;;;;;;;-140.72;0.00;52685.09;5100393;28;19923;-71
2024/01/19 03:49:24;;;;;;;;;;;;;;;-140.72;0.00;52664.81;5095851;28;20006;-71
2024/01/19 03:51:59;;;;;;;;;;;;;;;-140.72;0.00;52674.94;5097081;28;20002;-71
2024/01/19 03:54:25;;;;;;;;;;;;;;;-140.72;0.00;52626.25;5099050;28;19920;-71
2024/01/19 03:56:50;;;;;;;;;;;;;;;-140.72;0.00;52626.25;5104708;28;20468;-71
2024/01/19 03:59:15;;;;;;;;;;;;;;;-140.72;0.00;52658.72;5113069;28;19942;-71
2024/01/19 04:01:41;;;;;;;;;;;;;;;-140.72;0.00;52614.06;5086968;28;20392;-71
2024/01/19 04:04:06;;;;;;;;;;;;;;;-140.72;0.00;52652.63;5106933;28;19927;-71
2024/01/19 04:06:31;;;;;;;;;;;;;;;-140.72;0.00;52660.75;5104222;28;19928;-71
2024/01/19 04:08:56;;;;;;;;;;;;;;;-140.72;0.00;52624.22;5102566;28;19927;-71
2024/01/19 04:11:22;;;;;;;;;;;;;;;-140.72;0.00;52664.81;5100864;28;19920;-71
2024/01/19 04:13:47;;;;;;;;;;;;;;;-140.72;0.00;52603.94;5098934;28;19926;-71
2024/01/19 04:16:12;;;;;;;;;;;;;;;-140.72;0.00;52634.38;5101196;28;19955;-71
2024/01/19 04:18:37;;;;;;;;;;;;;;;-140.72;0.00;52670.88;5078916;28;19952;-71
2024/01/19 04:21:02;;;;;;;;;;;;;;;-140.72;0.00;52666.84;5107496;28;20026;-72
2024/01/19 04:23:27;;;;;;;;;;;;;;;-140.72;0.00;52622.19;5099353;28;20296;-71
2024/01/19 04:25:53;;;;;;;;;;;;;;;-140.72;0.00;52622.19;5098017;28;20040;-71
2024/01/19 04:28:18;;;;;;;;;;;;;;;-140.72;0.00;52620.16;5080483;28;19968;-71
2024/01/19 04:30:43;;;;;;;;;;;;;;;-140.72;0.00;52650.59;5102402;28;19920;-71
2024/01/19 04:33:08;;;;;;;;;;;;;;;-140.72;0.00;52612.03;5099556;28;19916;-71
2024/01/19 04:35:33;;;;;;;;;;;;;;;-140.72;0.00;52624.22;5097435;28;19919;-71
2024/01/19 04:37:59;;;;;;;;;;;;;;;-140.72;0.00;52630.31;5104815;28;19927;-71
2024/01/19 04:40:24;;;;;;;;;;;;;;;-140.72;0.00;52585.66;5100156;28;19923;-72
2024/01/19 04:42:49;;;;;;;;;;;;;;;-140.72;0.00;52561.31;5108747;28;20345;-71
2024/01/19 04:45:14;;;;;;;;;;;;;;;-140.72;0.00;52593.78;5101836;28;19998;-71
2024/01/19 04:47:40;;;;;;;;;;;;;;;-140.72;0.00;52616.09;5103841;28;20011;-72
2024/01/19 04:50:05;;;;;;;;;;;;;;;-140.72;0.00;52599.88;5100044;28;20007;-71
2024/01/19 04:52:31;;;;;;;;;;;;;;;-140.72;0.00;52577.53;5103282;28;19927;-71
2024/01/19 04:54:56;;;;;;;;;;;;;;;-140.72;0.00;52607.97;5102691;28;19969;-72
2024/01/19 04:57:21;;;;;;;;;;;;;;;-140.72;0.00;52622.19;5097673;28;19928;-71
2024/01/19 04:59:46;;;;;;;;;;;;;;;-140.72;0.00;52626.25;5086550;28;20386;-71
2024/01/19 05:02:11;;;;;;;;;;;;;;;-140.72;0.00;52597.84;5104834;28;19920;-72
2024/01/19 05:04:37;;;;;;;;;;;;;;;-140.72;0.00;52603.94;5066854;28;20255;-73
2024/01/19 05:07:02;;;;;;;;;;;;;;;-140.72;0.00;52569.44;5091470;28;19920;-71
2024/01/19 05:09:27;;;;;;;;;;;;;;;-140.72;0.00;52587.69;5087305;28;20361;-71
2024/01/19 05:11:53;;;;;;;;;;;;;;;-140.72;0.00;52601.91;5092960;28;19916;-71
2024/01/19 05:14:18;;;;;;;;;;;;;;;-140.72;0.00;52620.16;5094831;28;19962;-71
2024/01/19 05:16:43;;;;;;;;;;;;;;;-140.72;0.00;52573.50;5095755;28;20487;-72
2024/01/19 05:19:08;;;;;;;;;;;;;;;-140.72;0.00;52599.88;5101034;28;19968;-71
2024/01/19 05:21:33;;;;;;;;;;;;;;;-140.72;0.00;52630.31;5099249;28;19927;-71
2024/01/19 05:23:59;;;;;;;;;;;;;;;-140.72;0.00;52634.38;5099127;28;20893;-72
2024/01/19 05:26:25;;;;;;;;;;;;;;;-140.72;0.00;52634.38;5082662;28;19927;-71
2024/01/19 05:28:50;;;;;;;;;;;;;;;-140.72;0.00;52658.72;5097672;28;19922;-72
2024/01/19 05:31:15;;;;;;;;;;;;;;;-140.72;0.00;52626.25;5079513;28;19927;-71
2024/01/19 05:33:40;;;;;;;;;;;;;;;-140.72;0.00;52597.84;5094260;28;19920;-71
2024/01/19 05:36:06;;;;;;;;;;;;;;;-140.72;0.00;52630.31;5098962;28;20357;-71
2024/01/19 05:38:31;;;;;;;;;;;;;;;-140.72;0.00;52610.00;5103754;28;19946;-71
2024/01/19 05:40:58;;;;;;;;;;;;;;;-140.72;0.00;52622.19;5100651;28;19920;-71
2024/01/19 05:43:24;;;;;;;;;;;;;;;-140.72;0.00;52650.59;5100099;28;19997;-71
2024/01/19 05:45:49;;;;;;;;;;;;;;;-140.72;0.00;52601.91;5101957;28;19920;-71
2024/01/19 05:48:14;;;;;;;;;;;;;;;-140.72;0.00;52646.53;5095671;28;19920;-71
2024/01/19 05:50:39;;;;;;;;;;;;;;;-140.72;0.00;52626.25;5099456;28;19928;-71
2024/01/19 05:53:04;;;;;;;;;;;;;;;-140.72;0.00;52648.56;5113300;28;20392;-71
2024/01/19 05:55:30;;;;;;;;;;;;;;;-140.72;0.00;52642.47;5095895;28;21195;-72
2024/01/19 05:57:55;;;;;;;;;;;;;;;-140.72;0.00;52640.44;5056721;28;19923;-71
2024/01/19 06:00:20;;;;;;;;;;;;;;;-140.72;0.00;52666.84;5090489;28;19929;-71
2024/01/19 06:02:45;;;;;;;;;;;;;;;-140.72;0.00;52626.25;5085015;28;20375;-71
2024/01/19 06:05:10;;;;;;;;;;;;;;;-140.72;0.00;52650.59;5095843;28;19928;-71
2024/01/19 06:07:36;;;;;;;;;;;;;;;-140.72;0.00;52603.94;5097240;28;20299;-71
2024/01/19 06:10:01;;;;;;;;;;;;;;;-140.72;0.00;52670.88;5104945;28;20382;-71
2024/01/19 06:12:26;;;;;;;;;;;;;;;-140.72;0.00;52674.94;5101442;28;19923;-70
2024/01/19 06:14:52;;;;;;;;;;;;;;;-140.72;0.00;52658.72;5097031;28;19927;-72
2024/01/19 06:17:17;;;;;;;;;;;;;;;-140.72;0.00;52670.88;5100489;28;19920;-71
2024/01/19 06:19:42;;;;;;;;;;;;;;;-140.72;0.00;52666.84;5098010;28;19927;-71
2024/01/19 06:22:07;;;;;;;;;;;;;;;-140.72;0.00;52626.25;5098257;28;20273;-72
2024/01/19 06:24:35;;;;;;;;;;;;;;;-140.72;0.00;52650.59;5075649;28;19923;-71
2024/01/19 06:27:00;;;;;;;;;;;;;;;-140.72;0.00;52662.78;5095232;28;19920;-71
2024/01/19 06:29:25;;;;;;;;;;;;;;;-140.72;0.00;52618.13;5090920;28;19920;-72
2024/01/19 06:31:51;;;;;;;;;;;;;;;-140.72;0.00;52610.00;5092163;28;19927;-73
2024/01/19 06:34:16;;;;;;;;;;;;;;;-140.72;0.00;52605.94;5094103;28;19927;-71
2024/01/19 06:36:44;;;;;;;;;;;;;;;-140.72;0.00;52652.63;5090271;28;20316;-71
2024/01/19 06:39:11;;;;;;;;;;;;;;;-140.72;0.00;52632.34;5091884;28;19926;-71
2024/01/19 06:41:40;;;;;;;;;;;;;;;-140.72;0.00;52626.25;5100884;28;19924;-71
2024/01/19 06:44:05;;;;;;;;;;;;;;;-140.72;0.00;52658.72;5106431;28;19996;-71
2024/01/19 06:46:30;;;;;;;;;;;;;;;-140.72;0.00;52644.50;5096591;28;19920;-71
2024/01/19 06:48:56;;;;;;;;;;;;;;;-140.72;0.00;52652.63;5070389;28;19928;-71
2024/01/19 06:51:21;;;;;;;;;;;;;;;-140.72;0.00;52662.78;5087224;28;19928;-71
2024/01/19 06:53:47;;;;;;;;;;;;;;;-140.72;0.00;52634.38;5087136;28;19975;-71
2024/01/19 06:56:12;;;;;;;;;;;;;;;-140.72;0.00;52632.34;5100244;28;19928;-71
2024/01/19 06:58:37;;;;;;;;;;;;;;;-140.72;0.00;52725.69;5103825;28;19927;-72
2024/01/19 07:01:03;;;;;;;;;;;;;;;-140.72;0.00;52646.53;5094142;28;19974;-73
2024/01/19 07:03:29;;;;;;;;;;;;;;;-140.72;0.00;52662.78;5088135;28;19942;-71
2024/01/19 07:05:55;;;;;;;;;;;;;;;-140.72;0.00;52638.41;5091931;28;19942;-72
2024/01/19 07:08:21;;;;;;;;;;;;;;;-140.72;0.00;52656.69;5098360;28;19978;-71
2024/01/19 07:10:46;;;;;;;;;;;;;;;-140.72;0.00;52628.28;5081207;28;19947;-71
2024/01/19 07:13:11;;;;;;;;;;;;;;;-140.72;0.00;52632.34;5084612;28;20015;-71
2024/01/19 07:15:36;;;;;;;;;;;;;;;-140.72;0.00;52656.69;5086483;28;20307;-71
2024/01/19 07:18:02;;;;;;;;;;;;;;;-140.72;0.00;52658.72;5088993;28;19972;-71
2024/01/19 07:20:27;;;;;;;;;;;;;;;-140.72;0.00;52681.03;5099843;28;20270;-71
2024/01/19 07:22:53;;;;;;;;;;;;;;;-140.72;0.00;52658.72;5101137;28;20066;-71
2024/01/19 07:25:19;;;;;;;;;;;;;;;-140.72;0.00;52654.66;5098259;28;19951;-71
2024/01/19 07:27:44;;;;;;;;;;;;;;;-140.72;0.00;52664.81;5069635;28;19928;-71
2024/01/19 07:30:10;;;;;;;;;;;;;;;-140.72;0.00;52648.56;5087566;28;19931;-72
2024/01/19 07:32:35;;;;;;;;;;;;;;;-140.72;0.00;52650.59;5086473;28;20022;-71
2024/01/19 07:35:00;;;;;;;;;;;;;;;-140.72;0.00;52662.78;5093406;28;19990;-71
2024/01/19 07:37:25;;;;;;;;;;;;;;;-140.72;0.00;52656.69;5101010;28;19924;-71
2024/01/19 07:39:50;;;;;;;;;;;;;;;-140.72;0.00;52642.47;5091262;28;19920;-71
2024/01/19 07:42:16;;;;;;;;;;;;;;;-140.72;0.00;52662.78;5095882;28;20335;-71
2024/01/19 07:44:41;;;;;;;;;;;;;;;-140.72;0.00;52644.50;5094376;28;20342;-71
2024/01/19 07:47:06;;;;;;;;;;;;;;;-140.72;0.00;52674.94;5075218;28;19920;-71
2024/01/19 07:49:31;;;;;;;;;;;;;;;-140.72;0.00;52666.84;5091277;28;20345;-72
2024/01/19 07:51:57;;;;;;;;;;;;;;;-140.72;0.00;52650.59;5096975;28;20297;-71
2024/01/19 07:54:22;;;;;;;;;;;;;;;-140.72;0.00;52662.78;5105298;28;19942;-71
2024/01/19 07:56:47;;;;;;;;;;;;;;;-140.72;0.00;52628.28;5096072;28;19920;-71
2024/01/19 07:59:12;;;;;;;;;;;;;;;-140.72;0.00;52612.03;5098064;28;19957;-71
2024/01/19 08:01:40;;;;;;;;;;;;;;;-140.72;0.00;52650.59;5094590;28;20010;-73
2024/01/19 08:04:06;;;;;;;;;;;;;;;-140.72;0.00;52646.53;5093308;28;20033;-71
2024/01/19 08:06:31;;;;;;;;;;;;;;;-140.72;0.00;52646.53;5068643;28;19970;-70
2024/01/19 08:09:02;;;;;;;;;;;;;;;-140.72;0.00;52634.38;5091037;28;20763;-70
2024/01/19 08:11:27;;;;;;;;;;;;;;;-140.72;0.00;52642.47;5079014;28;19930;-70
2024/01/19 08:13:52;;;;;;;;;;;;;;;-140.72;0.00;52622.19;5085568;28;20114;-71
2024/01/19 08:16:44;;;;;;;;;;;;;;;-140.72;0.00;52652.63;5103312;28;19915;-71
2024/01/19 08:19:10;;;;;;;;;;;;;;;-140.72;0.00;52601.91;5091246;28;20019;-71
2024/01/19 08:21:42;;;;;;;;;;;;;;;-140.72;0.00;52642.47;5095912;28;19924;-71
2024/01/19 08:24:07;;;;;;;;;;;;;;;-140.72;0.00;52691.19;5076722;28;19943;-73
2024/01/19 08:26:32;;;;;;;;;;;;;;;-140.72;0.00;52670.88;5092027;28;19927;-71
2024/01/19 08:29:00;;;;;;;;;;;;;;;-140.72;0.00;52644.50;5088395;28;19931;-70
2024/01/19 08:31:26;;;;;;;;;;;;;;;-140.72;0.00;52662.78;5089667;28;19920;-70
2024/01/19 08:33:51;;;;;;;;;;;;;;;-140.72;0.00;52640.44;5086265;28;19966;-70
2024/01/19 08:36:16;;;;;;;;;;;;;;;-140.72;0.00;52638.41;5087903;28;19923;-70
2024/01/19 08:38:42;;;;;;;;;;;;;;;-140.72;0.00;52589.72;5083903;28;19931;-70
2024/01/19 08:41:07;;;;;;;;;;;;;;;-140.72;0.00;52610.00;5077831;28;19995;-73
2024/01/19 08:43:40;;;;;;;;;;;;;;;-140.72;0.00;52577.53;5088778;28;20022;-70
2024/01/19 08:46:05;;;;;;;;;;;;;;;-140.72;0.00;52660.75;5091092;28;20010;-70
2024/01/19 08:48:31;;;;;;;;;;;;;;;-140.72;0.00;52601.91;5082095;28;20062;-71
2024/01/19 08:50:57;;;;;;;;;;;;;;;-140.72;0.00;52603.94;5084916;28;19920;-70
2024/01/19 08:53:22;;;;;;;;;;;;;;;-140.72;0.00;52589.72;5086027;28;20053;-70
2024/01/19 08:55:47;;;;;;;;;;;;;;;-140.72;0.00;52587.69;5084234;28;20011;-74
2024/01/19 08:58:12;;;;;;;;;;;;;;;-140.72;0.00;52597.84;5088609;28;19920;-70
2024/01/19 09:00:38;;;;;;;;;;;;;;;-140.72;0.00;52585.66;5083452;28;20073;-70
2024/01/19 09:03:03;;;;;;;;;;;;;;;-140.72;0.00;52593.78;5090412;28;19920;-71
2024/01/19 09:05:28;;;;;;;;;;;;;;;-140.72;0.00;52589.72;5094833;28;19935;-72
2024/01/19 09:07:54;;;;;;;;;;;;;;;-140.72;0.00;52591.75;5114657;28;20339;-70
2024/01/19 09:10:20;;;;;;;;;;;;;;;-140.72;0.00;52614.06;5096519;28;20235;-69
2024/01/19 09:12:45;;;;;;;;;;;;;;;-140.72;0.00;52610.00;5093483;28;20385;-73
2024/01/19 09:15:10;;;;;;;;;;;;;;;-140.72;0.00;52573.50;5102131;28;19920;-70
2024/01/19 09:17:35;;;;;;;;;;;;;;;-140.72;0.00;52567.41;5098813;28;19983;-73
2024/01/19 09:20:03;;;;;;;;;;;;;;;-140.72;0.00;52563.34;5100015;28;20215;-71
2024/01/19 09:22:28;;;;;;;;;;;;;;;-140.72;0.00;52555.22;5094785;28;19916;-71
2024/01/19 09:24:54;;;;;;;;;;;;;;;-140.72;0.00;52575.50;5085375;28;19939;-73
2024/01/19 09:27:19;;;;;;;;;;;;;;;-140.72;0.00;52622.19;5092057;28;20341;-71
2024/01/19 09:29:44;;;;;;;;;;;;;;;-140.72;0.00;52559.28;5060442;28;19924;-73
2024/01/19 09:32:09;;;;;;;;;;;;;;;-140.72;0.00;52569.44;5078334;28;19923;-72
2024/01/19 09:34:34;;;;;;;;;;;;;;;-140.72;0.00;52620.16;5094250;28;19919;-72
2024/01/19 09:37:00;;;;;;;;;;;;;;;-140.72;0.00;52569.44;5094101;28;19920;-73
2024/01/19 09:39:25;;;;;;;;;;;;;;;-140.72;0.00;52607.97;5098287;28;19916;-74
2024/01/19 09:41:52;;;;;;;;;;;;;;;-140.72;0.00;52624.22;5107028;28;19920;-73
2024/01/19 09:44:19;;;;;;;;;;;;;;;-140.72;0.00;52612.03;5104366;28;20437;-72
2024/01/19 09:47:01;;;;;;;;;;;;;;;-140.72;0.00;52618.13;5082582;28;19928;-73
2024/01/19 09:49:30;;;;;;;;;;;;;;;-140.72;0.00;52599.88;5103721;28;19924;-70
2024/01/19 09:51:56;;;;;;;;;;;;;;;-140.72;0.00;52597.84;5098502;28;19988;-74
2024/01/19 09:54:42;;;;;;;;;;;;;;;-140.72;0.00;52551.16;5099246;28;20368;-73
2024/01/19 09:57:07;;;;;;;;;;;;;;;-140.72;0.00;52601.91;5082934;28;20335;-70
2024/01/19 09:59:33;;;;;;;;;;;;;;;-140.72;0.00;52575.50;5090567;28;20026;-72
2024/01/19 10:02:01;;;;;;;;;;;;;;;-140.72;0.00;52581.59;5092232;28;19927;-70
2024/01/19 10:04:27;;;;;;;;;;;;;;;-140.72;0.00;52541.03;5096403;28;20328;-70
2024/01/19 10:06:53;;;;;;;;;;;;;;;-140.72;0.00;52601.91;5091360;28;19940;-70
2024/01/19 10:09:19;;;;;;;;;;;;;;;-140.72;0.00;52539.00;5103616;28;19916;-70
2024/01/19 10:11:54;;;;;;;;;;;;;;;-140.72;0.00;52563.34;5099226;28;19928;-70
2024/01/19 10:14:20;;;;;;;;;;;;;;;-140.72;0.00;52601.91;5079529;28;19916;-70
2024/01/19 10:16:47;;;;;;;;;;;;;;;-140.72;0.00;52607.97;5089418;28;20345;-72
2024/01/19 10:19:13;;;;;;;;;;;;;;;-140.72;0.00;52575.50;5086178;28;19921;-72
2024/01/19 10:21:38;;;;;;;;;;;;;;;-140.72;0.00;52569.44;5079635;28;20362;-71
2024/01/19 10:24:19;;;;;;;;;;;;;;;-140.72;0.00;52587.69;5081863;28;19962;-72
2024/01/19 10:26:50;;;;;;;;;;;;;;;-140.72;0.00;52595.81;5085496;28;19931;-72
2024/01/19 10:29:16;;;;;;;;;;;;;;;-140.72;0.00;52585.66;5079623;28;19986;-71
2024/01/19 10:31:45;;;;;;;;;;;;;;;-140.72;0.00;52601.91;5063519;28;20733;-72
2024/01/19 10:34:17;;;;;;;;;;;;;;;-140.72;0.00;52589.72;5073476;28;19917;-70
2024/01/19 10:36:44;;;;;;;;;;;;;;;-140.72;0.00;52589.72;5091625;28;20281;-70
2024/01/19 10:39:16;;;;;;;;;;;;;;;-140.72;0.00;52581.59;5084566;28;19920;-70
2024/01/19 10:41:41;;;;;;;;;;;;;;;-140.72;0.00;52626.25;5076434;28;20357;-70
2024/01/19 10:44:09;;;;;;;;;;;;;;;-140.72;0.00;52577.53;5084244;28;20016;-70
2024/01/19 10:46:34;;;;;;;;;;;;;;;-140.72;0.00;52567.41;5074835;28;20010;-70
2024/01/19 10:49:10;;;;;;;;;;;;;;;-140.72;0.00;52559.28;5085048;28;19951;-70
2024/01/19 10:51:38;;;;;;;;;;;;;;;-140.72;0.00;52581.59;5084292;28;19963;-71
2024/01/19 10:54:03;;;;;;;;;;;;;;;-140.72;0.00;52561.31;5084679;28;20423;-71
2024/01/19 10:56:29;;;;;;;;;;;;;;;-140.72;0.00;52569.44;5060041;28;19928;-70
2024/01/19 10:59:11;;;;;;;;;;;;;;;-140.72;0.00;52547.09;5074985;28;19943;-74
2024/01/19 11:01:37;;;;;;;;;;;;;;;-140.72;0.00;52610.00;5087469;28;19920;-72
2024/01/19 11:04:03;;;;;;;;;;;;;;;-140.72;0.00;52573.50;5089577;28;19943;-71
2024/01/19 11:06:28;;;;;;;;;;;;;;;-140.72;0.00;52601.91;5075733;28;19969;-70
2024/01/19 11:08:54;;;;;;;;;;;;;;;-140.72;0.00;52601.91;5077749;28;19923;-71
2024/01/19 11:11:26;;;;;;;;;;;;;;;-140.72;0.00;52589.72;5084922;28;19951;-71
2024/01/19 11:13:53;;;;;;;;;;;;;;;-140.72;0.00;52514.63;5086365;28;19957;-70
2024/01/19 11:16:22;;;;;;;;;;;;;;;-140.72;0.00;52573.50;5100587;28;19915;-70
2024/01/19 11:18:59;;;;;;;;;;;;;;;-140.72;0.00;52569.44;5101844;28;20235;-70
2024/01/19 11:21:24;;;;;;;;;;;;;;;-140.72;0.00;52567.41;5089088;28;19915;-70
2024/01/19 11:23:49;;;;;;;;;;;;;;;-140.72;0.00;52575.50;5088583;28;19969;-70
2024/01/19 11:26:20;;;;;;;;;;;;;;;-140.72;0.00;52561.31;5082135;28;19920;-71
2024/01/19 11:28:51;;;;;;;;;;;;;;;-140.72;0.00;52603.94;5089981;28;19924;-70
2024/01/19 11:31:18;;;;;;;;;;;;;;;-140.72;0.00;52561.31;5092371;28;19984;-70
2024/01/19 11:33:45;;;;;;;;;;;;;;;-140.72;0.00;52581.59;5092201;28;19923;-70
2024/01/19 11:36:10;;;;;;;;;;;;;;;-140.72;0.00;52547.09;5084114;28;19916;-70
2024/01/19 11:38:46;;;;;;;;;;;;;;;-140.72;0.00;52545.06;5086036;28;20007;-70
2024/01/19 11:41:29;;;;;;;;;;;;;;;-140.72;0.00;52549.13;5087231;28;19917;-70
2024/01/19 11:43:55;;;;;;;;;;;;;;;-140.72;0.00;52557.25;5092002;28;19999;-71
2024/01/19 11:46:40;;;;;;;;;;;;;;;-140.72;0.00;52549.13;5088610;28;20346;-71
2024/01/19 11:49:05;;;;;;;;;;;;;;;-140.72;0.00;52569.44;5091709;28;19916;-71
2024/01/19 11:51:31;;;;;;;;;;;;;;;-140.72;0.00;52561.31;5072074;28;19954;-71
2024/01/19 11:53:58;;;;;;;;;;;;;;;-140.72;0.00;52593.78;5087039;28;20394;-71
2024/01/19 11:56:24;;;;;;;;;;;;;;;-140.72;0.00;52524.78;5089438;28;20007;-71
2024/01/19 11:58:49;;;;;;;;;;;;;;;-140.72;0.00;52569.44;5091019;28;20106;-71
2024/01/19 12:01:15;;;;;;;;;;;;;;;-140.72;0.00;52565.38;5076640;28;19981;-71
2024/01/19 12:03:41;;;;;;;;;;;;;;;-140.72;0.00;52601.91;5079637;28;19922;-71
2024/01/19 12:06:06;;;;;;;;;;;;;;;-140.72;0.00;52532.91;5077905;28;20035;-71
2024/01/19 12:08:32;;;;;;;;;;;;;;;-140.72;0.00;52593.78;5083260;28;20015;-69
2024/01/19 12:11:02;;;;;;;;;;;;;;;-140.72;0.00;52583.63;5067482;28;20026;-69
2024/01/19 12:13:27;;;;;;;;;;;;;;;-140.72;0.00;52557.25;5080443;28;20410;-70
2024/01/19 12:15:53;;;;;;;;;;;;;;;-140.72;0.00;52583.63;5083365;28;19962;-70
2024/01/19 12:18:18;;;;;;;;;;;;;;;-140.72;0.00;52545.06;5082791;28;20285;-70
2024/01/19 12:20:46;;;;;;;;;;;;;;;-140.72;0.00;52536.97;5085953;28;20385;-70
2024/01/19 12:23:13;;;;;;;;;;;;;;;-140.72;0.00;52553.19;5085940;28;20266;-70
2024/01/19 12:25:38;;;;;;;;;;;;;;;-140.72;0.00;52508.56;5084101;28;19916;-70
2024/01/19 12:28:07;;;;;;;;;;;;;;;-140.72;0.00;52581.59;5082062;28;19923;-70
2024/01/19 12:30:33;;;;;;;;;;;;;;;-140.72;0.00;52545.06;5100226;28;19971;-70